Latest Weather Observations for Mount Ginini

IDN60901

Issued at 1:41 pm EDT Saturday 16 October 2021 (issued every 10 minutes, with the page automatically refreshed every 10 minutes)

About weather observations | Map of Canberra area stations | Latest observations for Canberra area | Other Formats
Station Details ID: 070349 Name: MOUNT GININI AWS Lat: -35.53 Lon: 148.77 Height: 1760.0 m
Data from the previous 72 hours. | See also: Recent months at Mount Ginini
Date/Time
EDT
Temp
°C
App
Temp
°C
Dew
Point
°C
Rel
Hum
%
Delta-T
°C
Wind Press
QNH
hPa
Press
MSL
hPa
Rain since
9am
mm
Dir  Spd
km/h
Gust
km/h
Spd
kts
Gust
kts
16/01:31pm 3.2 -3.6 2.9 98 0.1 WSW 28 61 15 33 - - -
16/01:30pm 3.2 -3.3 2.9 98 0.1 WSW 26 61 14 33 - - -
16/01:26pm 3.1 -3.8 2.8 98 0.1 WSW 28 61 15 33 - - -
16/01:00pm 2.9 -3.2 2.6 98 0.1 WSW 24 48 13 26 - - -
16/12:30pm 2.7 -3.5 2.4 98 0.1 WSW 24 54 13 29 - - -
16/12:16pm 2.3 -4.7 2.0 98 0.1 WSW 28 52 15 28 - - -
16/12:00pm 2.6 -3.2 2.3 98 0.1 WSW 22 46 12 25 - - -
16/11:30am 2.5 -2.7 2.2 98 0.1 WSW 19 41 10 22 - - -
16/11:00am 2.4 -2.9 2.1 98 0.1 W 19 44 10 24 - - -
16/10:30am 2.0 -4.3 1.7 98 0.1 WSW 24 46 13 25 - - -
16/10:00am 1.7 -3.9 1.4 98 0.1 WSW 20 43 11 23 - - -
16/09:30am 1.0 -5.1 0.7 98 0.1 WSW 22 43 12 23 - - -
16/09:00am 0.4 -5.4 0.1 98 0.1 W 20 37 11 20 - - -
16/08:37am 0.2 -7.1 -0.1 98 0.1 W 28 46 15 25 - - -
16/08:30am 0.1 -6.5 -0.2 98 0.1 W 24 44 13 24 - - -
16/08:03am 0.1 -7.2 -0.2 98 0.1 W 28 56 15 30 - - -
16/08:00am 0.0 -6.6 -0.3 98 0.1 W 24 44 13 24 - - -
16/07:30am 0.0 -6.6 -0.3 98 0.1 W 24 46 13 25 - - -
16/07:17am 0.0 -7.3 -0.3 98 0.1 W 28 46 15 25 - - -
16/07:14am 0.0 -7.3 -0.3 98 0.1 W 28 50 15 27 - - -
16/07:00am -0.1 -4.2 -0.4 98 0.1 W 11 20 6 11 - - -
16/06:30am -0.2 -4.7 -0.5 98 0.1 W 13 20 7 11 - - -
16/06:00am -0.5 -5.4 -0.8 98 0.1 W 15 26 8 14 - - -
16/05:30am -0.9 -5.9 -1.2 98 0.1 W 15 24 8 13 - - -
16/05:00am -0.9 -6.3 -1.2 98 0.1 W 17 30 9 16 - - -
16/04:30am -0.9 -5.9 -1.2 98 0.1 W 15 28 8 15 - - -
16/04:00am -0.7 -6.4 -1.0 98 0.1 W 19 35 10 19 - - -
16/03:30am -0.6 -8.0 -0.9 98 0.1 W 28 57 15 31 - - -
16/03:12am -0.8 -8.3 -1.1 98 0.1 W 28 54 15 29 - - -
16/03:00am -0.8 -7.9 -1.1 98 0.1 W 26 52 14 28 - - -
16/02:30am -0.8 -8.6 -1.1 98 0.1 W 30 57 16 31 - - -
16/02:00am -0.4 -8.6 -0.7 98 0.1 W 32 61 17 33 - - -
16/01:30am 0.0 -8.1 -0.3 98 0.1 W 32 59 17 32 - - -
16/01:00am 0.0 -8.7 -0.3 98 0.1 W 35 63 19 34 - - -
16/12:30am 0.1 -8.0 -0.2 98 0.1 W 32 63 17 34 - - -
16/12:00am 0.1 -7.2 -0.2 98 0.1 W 28 52 15 28 - - -
 
Date/Time
EDT
Temp
°C
App
Temp
°C
Dew
Point
°C
Rel
Hum
%
Delta-T
°C
Wind Press
QNH
hPa
Press
MSL
hPa
Rain since
9am
mm
Dir  Spd
km/h
Gust
km/h
Spd
kts
Gust
kts
15/11:30pm 0.3 -7.0 0.0 98 0.1 W 28 56 15 30 - - -
15/11:00pm 0.2 -7.5 -0.1 98 0.1 W 30 54 16 29 - - -
15/10:46pm 0.2 -7.1 -0.1 98 0.1 W 28 54 15 29 - - -
15/10:30pm 0.1 -6.5 -0.2 98 0.1 W 24 43 13 23 - - -
15/10:00pm 0.0 -5.8 -0.3 98 0.1 WSW 20 41 11 22 - - -
15/09:30pm 0.2 -5.4 -0.1 98 0.1 W 19 37 10 20 - - -
15/09:00pm 0.1 -5.7 -0.2 98 0.1 WSW 20 35 11 19 - - -
15/08:30pm 0.4 -5.4 0.1 98 0.1 WSW 20 43 11 23 - - -
15/08:00pm 0.0 -7.0 -0.3 98 0.1 WSW 26 50 14 27 - - -
15/07:36pm 0.6 -6.7 0.3 98 0.1 WSW 28 50 15 27 - - -
15/07:30pm 0.8 -5.7 0.5 98 0.1 WSW 24 43 13 23 - - -
15/07:00pm 0.9 -4.6 0.6 98 0.1 WSW 19 43 10 23 - - -
15/06:30pm 0.9 -5.2 0.6 98 0.1 WSW 22 39 12 21 - - -
15/06:00pm 0.4 -6.5 0.1 98 0.1 WSW 26 52 14 28 - - -
15/05:30pm 1.4 -4.0 1.1 98 0.1 W 19 37 10 20 - - -
15/05:00pm 1.3 -4.3 1.0 98 0.1 W 20 35 11 19 - - -
15/04:30pm 1.4 -3.6 1.1 98 0.1 WNW 17 30 9 16 - - -
15/04:00pm 2.5 -2.4 2.2 98 0.1 W 17 30 9 16 - - -
15/03:30pm 2.0 -2.9 1.7 98 0.1 WNW 17 32 9 17 - - -
15/03:00pm 2.4 -2.1 2.1 98 0.1 WNW 15 28 8 15 - - -
15/02:30pm 2.0 -2.6 1.7 98 0.1 W 15 30 8 16 - - -
15/02:00pm 1.9 -2.7 1.6 98 0.1 NW 15 30 8 16 - - -
15/01:30pm 2.1 -2.1 1.8 98 0.1 WNW 13 30 7 16 - - -
15/01:00pm 2.0 -2.6 1.7 98 0.1 WNW 15 28 8 15 - - -
15/12:30pm 2.2 -2.0 1.9 98 0.1 WNW 13 26 7 14 - - -
15/12:00pm 1.4 -2.5 1.1 98 0.1 W 11 22 6 12 - - -
15/11:30am 1.2 -4.3 0.9 98 0.1 NW 19 35 10 19 - - -
15/11:00am 1.7 -3.3 1.4 98 0.1 NW 17 32 9 17 - - -
15/10:30am 1.5 -3.5 1.2 98 0.1 NW 17 30 9 16 - - -
15/10:00am 1.0 -3.7 0.7 98 0.1 NW 15 30 8 16 - - -
15/09:30am 1.0 -3.3 0.7 98 0.1 NNW 13 30 7 16 - - -
15/09:00am 1.2 -2.7 0.9 98 0.1 NNW 11 20 6 11 - - -
15/08:30am 0.6 -3.4 0.3 98 0.1 NNW 11 22 6 12 - - -
15/08:00am 0.4 -3.7 0.1 98 0.1 NNW 11 20 6 11 - - -
15/07:30am 0.2 -4.6 -0.1 98 0.1 NW 15 28 8 15 - - -
15/07:00am 0.1 -5.1 -0.2 98 0.1 NNW 17 32 9 17 - - -
15/06:30am 0.1 -4.8 -0.2 98 0.1 NNW 15 26 8 14 - - -
15/06:00am 0.2 -5.4 -0.1 98 0.1 NW 19 28 10 15 - - -
15/05:30am 0.1 -5.1 -0.2 98 0.1 NNW 17 30 9 16 - - -
15/05:00am 0.1 -4.8 -0.2 98 0.1 NNW 15 30 8 16 - - -
15/04:30am 0.1 -4.8 -0.2 98 0.1 N 15 30 8 16 - - -
15/04:00am 0.2 -4.6 -0.1 98 0.1 N 15 32 8 17 - - -
15/03:30am 0.2 -4.3 -0.1 98 0.1 N 13 24 7 13 - - -
15/03:00am -0.1 -5.0 -0.4 98 0.1 NW 15 32 8 17 - - -
15/02:30am -0.3 -6.9 -0.6 98 0.1 NW 24 44 13 24 - - -
15/02:00am 0.8 -5.7 0.5 98 0.1 WNW 24 46 13 25 - - -
15/01:30am 1.6 -3.0 1.3 98 0.1 WNW 15 30 8 16 - - -
15/01:00am 1.7 -3.7 1.1 96 0.3 WNW 19 30 10 16 - - -
15/12:30am 1.7 -3.4 1.0 95 0.3 WNW 17 30 9 16 - - -
15/12:00am 2.3 -2.7 1.6 95 0.3 W 17 28 9 15 - - -
 
Date/Time
EDT
Temp
°C
App
Temp
°C
Dew
Point
°C
Rel
Hum
%
Delta-T
°C
Wind Press
QNH
hPa
Press
MSL
hPa
Rain since
9am
mm
Dir  Spd
km/h
Gust
km/h
Spd
kts
Gust
kts
14/11:30pm 2.4 -1.8 1.7 95 0.3 W 13 24 7 13 - - -
14/11:00pm 2.1 -2.1 1.7 97 0.2 WNW 13 20 7 11 - - -
14/10:30pm 2.0 -2.2 1.7 98 0.1 WNW 13 28 7 15 - - -
14/10:00pm 2.4 -2.5 2.1 98 0.1 W 17 35 9 19 - - -
14/09:30pm 2.8 -2.0 2.5 98 0.1 W 17 33 9 18 - - -
14/09:00pm 3.7 -0.6 3.4 98 0.1 WNW 15 26 8 14 - - -
14/08:30pm 3.9 -0.7 3.6 98 0.1 WNW 17 32 9 17 - - -
14/08:00pm 3.9 -0.7 3.6 98 0.1 WNW 17 33 9 18 - - -
14/07:30pm 3.8 -0.5 3.5 98 0.1 NW 15 26 8 14 - - -
14/07:00pm 3.9 0.0 3.6 98 0.1 WNW 13 26 7 14 - - -
14/06:30pm 4.8 0.7 4.5 98 0.1 WNW 15 30 8 16 - - -
14/06:00pm 5.5 1.2 5.2 98 0.1 NW 17 32 9 17 - - -
14/05:30pm 5.6 0.4 5.3 98 0.1 NW 22 37 12 20 - - -
14/05:00pm 5.7 0.5 5.4 98 0.1 NNW 22 44 12 24 - - -
14/04:50pm 5.6 -0.8 5.3 98 0.1 NNW 28 46 15 25 - - -
14/04:30pm 6.1 1.9 5.8 98 0.1 NNW 17 43 9 23 - - -
14/04:00pm 6.1 2.3 5.8 98 0.1 NNW 15 35 8 19 - - -
14/03:30pm 6.4 3.0 6.1 98 0.2 NNW 13 24 7 13 - - -
14/03:00pm 6.3 2.9 6.0 98 0.1 N 13 35 7 19 - - -
14/02:30pm 5.7 2.2 5.4 98 0.1 N 13 32 7 17 - - -
14/02:00pm 5.3 1.7 5.0 98 0.1 N 13 26 7 14 - - -
14/01:30pm 5.1 0.7 4.8 98 0.1 NNE 17 35 9 19 - - -
14/01:00pm 5.0 0.6 4.7 98 0.1 NNE 17 54 9 29 - - -
14/12:30pm 4.9 0.8 4.6 98 0.1 NE 15 30 8 16 - - -
14/12:00pm 5.1 0.7 4.8 98 0.1 NE 17 30 9 16 - - -
14/11:30am 4.8 0.7 4.5 98 0.1 NNE 15 30 8 16 - - -
14/11:00am 4.5 1.1 4.2 98 0.1 NE 11 24 6 13 - - -
14/10:30am 4.7 1.0 4.4 98 0.1 NNE 13 26 7 14 - - -
14/10:00am 4.7 1.0 4.4 98 0.1 N 13 32 7 17 - - -
14/09:30am 4.2 0.8 3.9 98 0.1 N 11 22 6 12 - - -
14/09:00am 3.7 -0.2 3.4 98 0.1 N 13 30 7 16 - - -
14/08:30am 3.7 0.2 3.4 98 0.1 NNE 11 22 6 12 - - -
14/08:00am 3.5 -0.4 3.2 98 0.1 NNE 13 30 7 16 - - -
14/07:30am 3.6 -0.3 3.3 98 0.1 N 13 24 7 13 - - -
14/07:00am 2.6 -1.1 2.3 98 0.1 N 11 24 6 13 - - -
14/06:30am 2.6 -2.3 2.3 98 0.1 N 17 33 9 18 - - -
14/06:00am 3.1 -2.2 2.8 98 0.1 NW 20 41 11 22 - - -
14/05:30am 2.8 -2.0 2.5 98 0.1 WNW 17 32 9 17 - - -
14/05:00am 2.2 -2.0 1.9 98 0.1 W 13 26 7 14 - - -
14/04:30am 1.7 -5.8 1.4 98 0.1 NW 30 56 16 30 - - -
14/04:19am 2.2 -4.8 1.9 98 0.1 NW 28 46 15 25 - - -
14/04:00am 2.3 -3.9 2.0 98 0.1 NW 24 56 13 30 - - -
14/03:30am 5.1 0.7 4.8 98 0.1 N 17 50 9 27 - - -
14/03:00am 4.9 0.5 4.6 98 0.1 N 17 44 9 24 - - -
14/02:30am 5.5 1.2 5.2 98 0.1 NNE 17 37 9 20 - - -
14/02:00am 5.8 1.6 5.5 98 0.1 NNE 17 30 9 16 - - -
14/01:30am 5.8 1.9 5.5 98 0.1 NE 15 32 8 17 - - -
14/01:00am 5.8 2.3 5.5 98 0.1 NNE 13 28 7 15 - - -
14/12:30am 5.7 1.4 5.4 98 0.1 NE 17 33 9 18 - - -
14/12:00am 5.7 1.4 5.4 98 0.1 NNE 17 32 9 17 - - -
 
Date/Time
EDT
Temp
°C
App
Temp
°C
Dew
Point
°C
Rel
Hum
%
Delta-T
°C
Wind Press
QNH
hPa
Press
MSL
hPa
Rain since
9am
mm
Dir  Spd
km/h
Gust
km/h
Spd
kts
Gust
kts
13/11:30pm 5.6 1.3 5.3 98 0.1 NE 17 33 9 18 - - -
13/11:00pm 5.5 1.2 5.2 98 0.1 NE 17 32 9 17 - - -
13/10:30pm 5.3 0.6 5.0 98 0.1 ENE 19 32 10 17 - - -
13/10:00pm 5.2 0.8 4.9 98 0.1 NE 17 32 9 17 - - -
13/09:30pm 5.1 0.1 4.8 98 0.1 ENE 20 33 11 18 - - -
13/09:00pm 5.0 0.0 4.7 98 0.1 ENE 20 37 11 20 - - -
13/08:30pm 4.9 -0.1 4.6 98 0.1 ENE 20 37 11 20 - - -
13/08:00pm 4.8 0.4 4.5 98 0.1 ENE 17 32 9 17 - - -
13/07:30pm 4.5 0.0 4.2 98 0.1 ENE 17 28 9 15 - - -
13/07:00pm 4.4 -0.5 4.1 98 0.1 ENE 19 35 10 19 - - -
13/06:30pm 4.4 -0.7 4.1 98 0.1 ENE 20 35 11 19 - - -
13/06:00pm 4.2 -0.4 3.9 98 0.1 ENE 17 30 9 16 - - -
13/05:30pm 4.1 -1.8 3.8 98 0.1 ENE 24 39 13 21 - - -
13/05:00pm 4.4 -1.5 4.1 98 0.1 ENE 24 41 13 22 - - -
13/04:30pm 4.5 -1.0 4.1 97 0.2 ENE 22 33 12 18 - - -
13/04:00pm 4.4 -1.1 4.1 98 0.1 ENE 22 39 12 21 - - -
13/03:30pm 4.2 -1.3 3.9 98 0.1 ENE 22 35 12 19 - - -
13/03:00pm 4.0 -1.6 3.7 98 0.1 ENE 22 37 12 20 - - -
13/02:30pm 3.9 -1.1 3.6 98 0.1 ENE 19 37 10 20 - - -
13/02:00pm 3.9 -1.1 3.6 98 0.1 ENE 19 33 10 18 - - -

Latest Capital City Observations: Canberra | Sydney | Melbourne | Brisbane | Adelaide | Perth | Hobart | Darwin

Other formats

Comma delimited format used in spreadsheet applications
http://www.bom.gov.au/fwo/IDN60903/IDN60903.95925.axf

JavaScript Object Notation format (JSON) in row-major order
http://www.bom.gov.au/fwo/IDN60903/IDN60903.95925.json

Data quality

Most of these data are generated automatically and are frequently updated. Quality checks on data are not normally performed. It is possible for incorrect values to appear. Refer to information at About Latest Weather Observations and please check the disclaimer before using these data.